Terminal Aerodrome Forecast
Issued by NWS Sterling, VA

Current Version | Previous Version | Text Only | Print | Product List | Glossary On
Versions: 1 2 3 4 5 6 7 8 9 10 11 12 13 14 15 16 17 18 19 20 21
000
FTUS41 KLWX 221700
TAFBWI
TAF
KBWI 221720Z 2218/2324 09005KT P6SM SCT030 OVC050
     FM230700 00000KT P6SM OVC040
     FM230900 VRB03KT P6SM OVC025
     FM231100 06006KT P6SM OVC020
     FM231500 06009KT P6SM BKN025
     FM231800 06007KT P6SM BKN050=

USA.gov is the U.S. government's official web portal to all federal, state and local government web resources and services.